createdAt,value
2019-03-29T00:01:15.723Z,27.77
2019-03-29T00:03:44.178Z,19.15
2019-03-29T00:06:12.648Z,19.70
2019-03-29T00:08:41.104Z,18.35
2019-03-29T00:11:09.585Z,21.20
2019-03-29T00:13:38.192Z,20.40
2019-03-29T00:16:06.675Z,20.10
2019-03-29T00:18:35.966Z,22.80
2019-03-29T00:21:04.580Z,19.63
2019-03-29T00:23:33.051Z,26.25
2019-03-29T00:26:02.835Z,20.62
2019-03-29T00:28:31.287Z,19.32
2019-03-29T00:30:59.743Z,19.98
2019-03-29T00:33:28.191Z,24.00
2019-03-29T00:35:56.663Z,15.75
2019-03-29T00:38:25.141Z,22.10
2019-03-29T00:40:53.592Z,20.35
2019-03-29T00:43:22.050Z,19.00
2019-03-29T00:45:50.523Z,19.70
2019-03-29T00:48:18.987Z,23.20
2019-03-29T00:50:47.439Z,20.32
2019-03-29T00:53:15.897Z,19.20
2019-03-29T00:55:44.359Z,23.70
2019-03-29T00:58:12.815Z,23.40
2019-03-29T01:00:41.306Z,18.32
2019-03-29T01:03:10.870Z,18.12
2019-03-29T01:05:39.502Z,28.30
2019-03-29T01:08:10.295Z,24.82
2019-03-29T01:13:06.000Z,28.98
2019-03-29T01:15:35.804Z,22.80
2019-03-29T01:20:32.396Z,23.73
2019-03-29T01:23:00.864Z,20.70
2019-03-29T01:25:29.371Z,18.42
2019-03-29T01:27:57.990Z,19.95
2019-03-29T01:30:26.589Z,17.80
2019-03-29T01:32:55.167Z,22.20
2019-03-29T01:35:23.873Z,23.83
2019-03-29T01:37:52.396Z,24.50
2019-03-29T01:40:20.847Z,17.77
2019-03-29T01:42:49.305Z,21.77
2019-03-29T01:45:17.766Z,18.62
2019-03-29T01:47:46.224Z,23.67
2019-03-29T01:50:15.150Z,25.12
2019-03-29T01:52:43.610Z,19.70
2019-03-29T01:55:12.060Z,22.87
2019-03-29T01:57:40.516Z,21.55
2019-03-29T02:00:09.597Z,21.35
2019-03-29T02:02:38.336Z,23.10
2019-03-29T02:05:08.583Z,20.65
2019-03-29T02:07:37.993Z,22.15
2019-03-29T02:10:08.604Z,21.07
2019-03-29T02:15:09.311Z,15.83
2019-03-29T02:17:38.150Z,21.97
2019-03-29T02:20:07.435Z,23.70
2019-03-29T02:22:36.296Z,20.25
2019-03-29T02:25:07.754Z,15.38
2019-03-29T02:27:36.215Z,19.90
2019-03-29T02:30:06.742Z,19.42
2019-03-29T02:32:35.248Z,18.80
2019-03-29T02:35:04.345Z,15.72
2019-03-29T02:37:32.835Z,19.42
2019-03-29T02:40:01.282Z,17.23
2019-03-29T02:42:29.738Z,20.20
2019-03-29T02:44:58.549Z,21.95
2019-03-29T02:47:27.063Z,24.75
2019-03-29T02:49:55.530Z,19.35
2019-03-29T02:52:23.983Z,18.45
2019-03-29T02:54:52.463Z,20.30
2019-03-29T02:57:20.926Z,20.35
2019-03-29T02:59:49.375Z,26.02
2019-03-29T03:02:17.818Z,20.08
2019-03-29T03:04:46.293Z,19.60
2019-03-29T03:07:14.844Z,17.30
2019-03-29T03:09:43.365Z,22.37
2019-03-29T03:12:11.896Z,24.50
2019-03-29T03:14:40.399Z,24.63
2019-03-29T03:17:08.853Z,23.00
2019-03-29T03:19:37.378Z,22.40
2019-03-29T03:22:05.876Z,22.58
2019-03-29T03:24:34.384Z,24.50
2019-03-29T03:27:02.850Z,30.53
2019-03-29T03:29:31.309Z,32.75
2019-03-29T03:31:59.762Z,31.77
2019-03-29T03:34:28.232Z,30.62
2019-03-29T03:36:56.705Z,44.90
2019-03-29T03:39:32.022Z,37.83
2019-03-29T03:41:55.345Z,40.33
2019-03-29T03:44:23.825Z,39.60
2019-03-29T03:46:52.338Z,41.67
2019-03-29T03:49:22.111Z,39.15
2019-03-29T03:51:50.548Z,41.23
2019-03-29T03:54:19.008Z,44.20
2019-03-29T03:56:49.144Z,47.88
2019-03-29T03:59:17.859Z,51.18
2019-03-29T04:01:46.945Z,50.88
2019-03-29T04:04:15.386Z,44.05
2019-03-29T04:06:44.132Z,47.36
2019-03-29T04:09:12.620Z,39.08
2019-03-29T04:11:41.159Z,41.42
2019-03-29T04:14:09.675Z,49.50
2019-03-29T04:16:38.125Z,43.95
2019-03-29T04:19:06.583Z,50.75
2019-03-29T04:21:35.038Z,43.38
2019-03-29T04:24:03.503Z,43.45
2019-03-29T04:26:32.033Z,47.25
2019-03-29T04:29:04.758Z,43.65
2019-03-29T04:31:30.656Z,50.30
2019-03-29T04:33:59.111Z,43.10
2019-03-29T04:36:27.645Z,39.92
2019-03-29T04:38:56.091Z,43.55
2019-03-29T04:41:24.621Z,43.48
2019-03-29T04:43:53.071Z,45.12
2019-03-29T04:46:21.542Z,40.73
2019-03-29T04:48:50.011Z,46.08
2019-03-29T04:51:18.471Z,45.55
2019-03-29T04:53:46.948Z,48.65
2019-03-29T04:56:15.411Z,42.38
2019-03-29T04:58:44.376Z,46.18
2019-03-29T05:01:12.900Z,40.70
2019-03-29T05:03:41.375Z,43.80
2019-03-29T05:06:09.820Z,53.68
2019-03-29T05:08:38.301Z,38.98
2019-03-29T05:11:06.823Z,45.78
2019-03-29T05:13:35.274Z,42.90
2019-03-29T05:16:05.007Z,41.10
2019-03-29T05:21:01.139Z,45.67
2019-03-29T05:23:29.623Z,34.88
2019-03-29T05:25:58.163Z,47.10
2019-03-29T05:28:26.603Z,50.33
2019-03-29T05:30:55.261Z,43.35
2019-03-29T05:33:23.730Z,45.90
2019-03-29T05:35:52.185Z,47.88
2019-03-29T05:38:22.715Z,42.27
2019-03-29T05:40:51.167Z,42.48
2019-03-29T05:43:19.642Z,43.38
2019-03-29T05:45:48.648Z,38.28
2019-03-29T05:48:17.120Z,35.52
2019-03-29T05:50:45.580Z,43.75
2019-03-29T05:53:14.042Z,35.40
2019-03-29T05:55:42.500Z,38.02
2019-03-29T05:58:10.992Z,36.48
2019-03-29T06:00:39.511Z,38.42
2019-03-29T06:03:10.002Z,41.68
2019-03-29T06:05:38.244Z,37.60
2019-03-29T06:08:06.716Z,37.78
2019-03-29T06:10:47.925Z,39.70
2019-03-29T06:13:05.355Z,37.80
2019-03-29T06:15:33.815Z,41.08
2019-03-29T06:18:02.275Z,42.45
2019-03-29T06:20:30.775Z,37.70
2019-03-29T06:22:59.260Z,44.63
2019-03-29T06:25:27.712Z,40.30
2019-03-29T06:27:56.260Z,40.85
2019-03-29T06:30:30.983Z,38.78
2019-03-29T06:32:59.504Z,36.73
2019-03-29T06:35:31.028Z,38.33
2019-03-29T06:37:59.710Z,40.03
2019-03-29T06:40:28.169Z,42.15
2019-03-29T06:42:56.647Z,35.65
2019-03-29T06:45:25.112Z,41.10
2019-03-29T06:47:53.564Z,45.88
2019-03-29T06:50:22.053Z,35.58
2019-03-29T06:52:50.567Z,42.65
2019-03-29T06:55:19.024Z,42.48
2019-03-29T06:57:47.483Z,37.67
2019-03-29T07:00:16.540Z,38.60
2019-03-29T07:02:44.993Z,42.30
2019-03-29T07:05:13.499Z,43.60
2019-03-29T07:07:44.561Z,44.10
2019-03-29T07:10:12.220Z,44.75
2019-03-29T07:12:40.672Z,47.35
2019-03-29T07:15:09.396Z,48.48
2019-03-29T07:17:37.863Z,42.38
2019-03-29T07:20:07.347Z,41.37
2019-03-29T07:22:35.816Z,40.43
2019-03-29T07:25:06.786Z,42.30
2019-03-29T07:27:45.003Z,40.88
2019-03-29T07:30:06.874Z,33.67
2019-03-29T07:32:35.462Z,40.05
2019-03-29T07:35:05.755Z,40.28
2019-03-29T07:37:34.223Z,38.40
2019-03-29T07:40:05.689Z,32.40
2019-03-29T07:42:34.141Z,41.25
2019-03-29T07:45:02.593Z,37.35
2019-03-29T07:47:31.048Z,36.20
2019-03-29T07:49:59.498Z,32.58
2019-03-29T07:52:27.951Z,33.78
2019-03-29T07:54:56.410Z,31.00
2019-03-29T07:57:24.880Z,31.52
2019-03-29T07:59:53.323Z,31.87
2019-03-29T08:02:21.785Z,34.63
2019-03-29T08:04:51.134Z,34.65
2019-03-29T08:07:27.305Z,39.37
2019-03-29T08:09:49.949Z,38.75
2019-03-29T08:12:18.430Z,34.27
2019-03-29T08:14:46.958Z,37.05
2019-03-29T08:17:15.417Z,35.92
2019-03-29T08:19:43.931Z,34.65
2019-03-29T08:22:12.392Z,34.13
2019-03-29T08:24:40.862Z,33.13
2019-03-29T08:27:09.329Z,34.92
2019-03-29T08:29:37.787Z,29.35
2019-03-29T08:32:06.252Z,30.68
2019-03-29T08:34:36.026Z,36.20
2019-03-29T08:37:04.735Z,34.33
2019-03-29T08:39:33.187Z,35.28
2019-03-29T08:42:01.651Z,36.10
2019-03-29T08:44:30.115Z,33.38
2019-03-29T08:46:58.619Z,34.03
2019-03-29T08:49:27.071Z,33.15
2019-03-29T08:51:55.543Z,30.95
2019-03-29T08:54:24.033Z,31.85
2019-03-29T08:56:52.506Z,31.02
2019-03-29T08:59:21.028Z,29.63
2019-03-29T09:01:49.615Z,32.42
2019-03-29T09:04:21.485Z,34.43
2019-03-29T09:06:53.626Z,29.50
2019-03-29T09:11:46.298Z,29.02
2019-03-29T09:14:14.785Z,29.35
2019-03-29T09:16:43.227Z,30.77
2019-03-29T09:19:11.705Z,24.30
2019-03-29T09:21:40.311Z,26.62
2019-03-29T09:24:21.160Z,28.52
2019-03-29T09:26:39.199Z,28.10
2019-03-29T09:29:07.658Z,24.18
2019-03-29T09:31:36.119Z,24.30
2019-03-29T09:34:04.578Z,35.85
2019-03-29T09:36:33.171Z,25.40
2019-03-29T09:39:01.748Z,26.50
2019-03-29T09:41:30.294Z,25.37
2019-03-29T09:43:58.808Z,23.17
2019-03-29T09:46:27.338Z,24.20
2019-03-29T09:48:55.849Z,27.13
2019-03-29T09:51:24.339Z,24.25
2019-03-29T09:53:52.821Z,25.45
2019-03-29T09:56:21.488Z,23.07
2019-03-29T09:58:50.000Z,26.00
2019-03-29T10:01:20.806Z,26.37
2019-03-29T10:03:48.656Z,29.07
2019-03-29T10:06:17.220Z,23.90
2019-03-29T10:08:45.686Z,27.58
2019-03-29T10:11:14.184Z,30.60
2019-03-29T10:13:42.724Z,29.07
2019-03-29T10:16:11.324Z,36.58
2019-03-29T10:18:39.975Z,30.30
2019-03-29T10:21:08.519Z,35.28
2019-03-29T10:23:36.964Z,29.07
2019-03-29T10:26:05.422Z,29.05
2019-03-29T10:28:33.898Z,30.62
2019-03-29T10:31:02.352Z,26.02
2019-03-29T10:33:30.819Z,28.12
2019-03-29T10:35:59.287Z,26.90
2019-03-29T10:38:27.743Z,24.43
2019-03-29T10:40:56.199Z,26.15
2019-03-29T10:43:24.735Z,24.95
2019-03-29T10:45:53.260Z,27.75
2019-03-29T10:48:21.781Z,24.55
2019-03-29T10:50:50.235Z,28.27
2019-03-29T10:53:18.727Z,28.42
2019-03-29T10:55:47.258Z,26.50
2019-03-29T10:58:15.735Z,29.20
2019-03-29T11:00:44.202Z,29.23
2019-03-29T11:03:12.660Z,30.08
2019-03-29T11:05:41.282Z,25.52
2019-03-29T11:08:11.662Z,36.68
2019-03-29T11:10:40.185Z,28.60
2019-03-29T11:13:13.121Z,30.05
2019-03-29T11:15:39.291Z,30.23
2019-03-29T11:18:08.219Z,27.85
2019-03-29T11:20:37.639Z,27.58
2019-03-29T11:23:06.850Z,29.35
2019-03-29T11:25:35.296Z,32.28
2019-03-29T11:28:04.168Z,30.20
2019-03-29T11:30:42.135Z,32.63
2019-03-29T11:33:02.885Z,30.97
2019-03-29T11:35:31.408Z,34.60
2019-03-29T11:37:59.867Z,29.35
2019-03-29T11:40:28.327Z,33.25
2019-03-29T11:42:56.821Z,29.85
2019-03-29T11:45:25.283Z,28.67
2019-03-29T11:48:07.255Z,29.35
2019-03-29T11:50:23.931Z,26.93
2019-03-29T11:52:52.395Z,22.98
2019-03-29T11:55:20.851Z,27.27
2019-03-29T11:57:49.309Z,25.57
2019-03-29T12:00:20.843Z,27.73
2019-03-29T12:02:49.304Z,29.52
2019-03-29T12:05:17.755Z,28.62
2019-03-29T12:07:46.227Z,24.52
2019-03-29T12:10:14.694Z,26.87
2019-03-29T12:12:43.172Z,27.32
2019-03-29T12:15:12.031Z,29.27
2019-03-29T12:17:40.508Z,30.88
2019-03-29T12:20:09.068Z,28.47
2019-03-29T12:22:37.511Z,36.38
2019-03-29T12:25:07.411Z,27.20
2019-03-29T12:27:35.861Z,29.50
2019-03-29T12:30:07.134Z,27.62
2019-03-29T12:32:35.605Z,27.40
2019-03-29T12:35:06.154Z,26.73
2019-03-29T12:37:34.610Z,26.05
2019-03-29T12:40:05.282Z,28.45
2019-03-29T12:42:33.736Z,28.98
2019-03-29T12:45:02.231Z,30.45
2019-03-29T12:47:30.757Z,24.20
2019-03-29T12:49:59.210Z,27.85
2019-03-29T12:52:27.715Z,26.82
2019-03-29T12:54:56.159Z,25.57
2019-03-29T12:57:24.619Z,27.05
2019-03-29T12:59:53.075Z,29.02
2019-03-29T13:02:21.523Z,34.48
2019-03-29T13:04:49.991Z,31.27
2019-03-29T13:07:18.451Z,31.02
2019-03-29T13:09:46.975Z,29.52
2019-03-29T13:12:15.426Z,31.27
2019-03-29T13:14:43.946Z,32.38
2019-03-29T13:17:12.661Z,30.37
2019-03-29T13:19:41.124Z,30.35
2019-03-29T13:22:10.020Z,31.33
2019-03-29T13:24:38.487Z,29.15
2019-03-29T13:27:06.961Z,30.48
2019-03-29T13:29:35.440Z,30.52
2019-03-29T13:32:04.072Z,34.60
2019-03-29T13:34:32.519Z,37.15
2019-03-29T13:37:01.050Z,30.20
2019-03-29T13:39:29.503Z,30.12
2019-03-29T13:41:57.979Z,29.90
2019-03-29T13:44:28.286Z,32.08
2019-03-29T13:46:56.638Z,31.35
2019-03-29T13:49:25.111Z,30.80
2019-03-29T13:51:53.558Z,32.95
2019-03-29T13:54:22.024Z,27.82
2019-03-29T13:56:50.484Z,31.63
2019-03-29T13:59:18.931Z,30.12
2019-03-29T14:01:47.387Z,33.35
2019-03-29T14:04:15.846Z,27.58
2019-03-29T14:06:44.743Z,28.92
2019-03-29T14:09:13.195Z,29.50
2019-03-29T14:11:41.643Z,30.08
2019-03-29T14:14:10.091Z,28.15
2019-03-29T14:16:38.589Z,31.12
2019-03-29T14:19:07.111Z,25.60
2019-03-29T14:21:35.560Z,26.07
2019-03-29T14:24:04.035Z,28.77
2019-03-29T14:26:32.483Z,27.30
2019-03-29T14:29:00.945Z,28.25
2019-03-29T14:31:29.423Z,27.42
2019-03-29T14:33:57.868Z,27.82
2019-03-29T14:36:26.483Z,28.60
2019-03-29T14:38:54.948Z,31.23
2019-03-29T14:41:23.401Z,28.05
2019-03-29T14:43:51.858Z,30.70
2019-03-29T14:46:20.321Z,29.45
2019-03-29T14:48:48.971Z,26.68
2019-03-29T14:51:17.430Z,24.98
2019-03-29T14:53:45.877Z,27.62
2019-03-29T14:56:14.420Z,24.87
2019-03-29T14:58:42.863Z,34.13
2019-03-29T15:01:12.419Z,28.12
2019-03-29T15:03:40.879Z,30.10
2019-03-29T15:06:09.402Z,27.20
2019-03-29T15:08:37.972Z,28.52
2019-03-29T15:11:06.519Z,27.10
2019-03-29T15:13:34.967Z,29.25
2019-03-29T15:16:03.415Z,25.60
2019-03-29T15:18:31.909Z,26.87
2019-03-29T15:21:00.363Z,34.00
2019-03-29T15:23:28.887Z,26.85
2019-03-29T15:25:57.340Z,28.25
2019-03-29T15:28:25.823Z,25.02
2019-03-29T15:30:54.309Z,25.88
2019-03-29T15:33:22.964Z,27.58
2019-03-29T15:35:51.430Z,27.60
2019-03-29T15:38:19.880Z,28.00
2019-03-29T15:40:48.345Z,28.87
2019-03-29T15:43:16.935Z,26.45
2019-03-29T15:45:45.400Z,25.15
2019-03-29T15:48:13.871Z,27.17
2019-03-29T15:50:42.424Z,27.73
2019-03-29T15:53:11.050Z,28.57
2019-03-29T15:55:39.514Z,31.73
2019-03-29T15:58:08.145Z,30.60
2019-03-29T16:00:36.598Z,32.90
2019-03-29T16:03:05.071Z,34.10
2019-03-29T16:05:33.537Z,31.52
2019-03-29T16:08:02.003Z,32.55
2019-03-29T16:10:30.455Z,32.98
2019-03-29T16:12:58.895Z,33.53
2019-03-29T16:15:34.213Z,35.90
2019-03-29T16:20:26.805Z,29.37
2019-03-29T16:22:55.359Z,36.93
2019-03-29T16:25:23.828Z,39.70
2019-03-29T16:27:52.295Z,38.78
2019-03-29T16:30:20.921Z,35.55
2019-03-29T16:32:49.386Z,33.63
2019-03-29T16:35:17.863Z,38.73
2019-03-29T16:37:56.644Z,34.53
2019-03-29T16:40:16.536Z,38.58
2019-03-29T16:42:45.018Z,31.50
2019-03-29T16:45:13.531Z,33.60
2019-03-29T16:47:41.987Z,36.65
2019-03-29T16:50:10.671Z,33.73
2019-03-29T16:52:39.164Z,30.85
2019-03-29T16:55:13.561Z,31.37
2019-03-29T16:57:38.804Z,37.30
2019-03-29T17:00:12.649Z,37.67
2019-03-29T17:02:41.431Z,36.15
2019-03-29T17:05:11.666Z,34.30
2019-03-29T17:07:40.210Z,33.83
2019-03-29T17:10:09.315Z,33.83
2019-03-29T17:12:37.845Z,35.73
2019-03-29T17:15:07.041Z,33.48
2019-03-29T17:17:35.968Z,41.10
2019-03-29T17:20:08.791Z,36.73
2019-03-29T17:22:37.364Z,40.23
2019-03-29T17:25:07.316Z,37.50
2019-03-29T17:27:35.844Z,37.73
2019-03-29T17:30:06.447Z,34.25
2019-03-29T17:32:34.899Z,34.75
2019-03-29T17:35:03.991Z,38.50
2019-03-29T17:37:32.455Z,37.08
2019-03-29T17:40:00.940Z,35.23
2019-03-29T17:42:29.416Z,36.50
2019-03-29T17:44:59.058Z,33.00
2019-03-29T17:47:27.727Z,34.43
2019-03-29T17:49:56.177Z,35.58
2019-03-29T17:52:24.645Z,37.25
2019-03-29T17:54:55.020Z,38.95
2019-03-29T17:57:23.798Z,36.73
2019-03-29T17:59:55.172Z,41.65
2019-03-29T18:02:23.804Z,37.98
2019-03-29T18:04:52.262Z,37.50
2019-03-29T18:07:20.727Z,34.00
2019-03-29T18:09:49.180Z,38.08
2019-03-29T18:12:17.666Z,38.60
2019-03-29T18:14:46.180Z,38.80
2019-03-29T18:17:14.661Z,35.73
2019-03-29T18:19:43.104Z,41.55
2019-03-29T18:22:11.577Z,39.35
2019-03-29T18:24:40.043Z,37.17
2019-03-29T18:27:08.500Z,35.85
2019-03-29T18:29:36.947Z,42.35
2019-03-29T18:32:05.482Z,41.68
2019-03-29T18:34:34.698Z,41.55
2019-03-29T18:37:04.019Z,32.77
2019-03-29T18:39:33.011Z,44.55
2019-03-29T18:42:01.503Z,46.70
2019-03-29T18:44:29.959Z,49.70
2019-03-29T18:46:58.426Z,46.13
2019-03-29T18:49:26.888Z,45.30
2019-03-29T18:51:55.359Z,48.17
2019-03-29T18:54:23.829Z,45.90
2019-03-29T18:56:52.272Z,46.50
2019-03-29T18:59:20.739Z,52.65
2019-03-29T19:01:49.199Z,50.50
2019-03-29T19:04:17.676Z,50.70
2019-03-29T19:06:46.179Z,48.45
2019-03-29T19:09:14.638Z,43.38
2019-03-29T19:11:43.081Z,50.38
2019-03-29T19:14:11.580Z,51.53
2019-03-29T19:16:40.092Z,48.48
2019-03-29T19:19:10.335Z,43.15
2019-03-29T19:21:38.745Z,40.38
2019-03-29T19:24:07.309Z,47.23
2019-03-29T19:26:35.759Z,45.85
2019-03-29T19:29:04.289Z,53.35
2019-03-29T19:31:32.743Z,45.30
2019-03-29T19:34:01.202Z,44.13
2019-03-29T19:36:29.727Z,47.62
2019-03-29T19:38:58.180Z,54.70
2019-03-29T19:41:26.637Z,48.25
2019-03-29T19:43:55.095Z,49.45
2019-03-29T19:46:23.562Z,59.13
2019-03-29T19:48:52.068Z,57.83
2019-03-29T19:51:20.527Z,55.78
2019-03-29T19:53:49.015Z,57.33
2019-03-29T19:56:21.829Z,60.45
2019-03-29T19:58:50.361Z,62.78
2019-03-29T20:01:18.883Z,68.05
2019-03-29T20:03:47.349Z,85.10
2019-03-29T20:06:15.866Z,82.72
2019-03-29T20:08:44.330Z,77.22
2019-03-29T20:11:12.788Z,71.75
2019-03-29T20:13:41.256Z,66.65
2019-03-29T20:16:09.796Z,60.00
2019-03-29T20:18:38.251Z,63.35
2019-03-29T20:21:06.716Z,66.67
2019-03-29T20:23:35.171Z,69.42
2019-03-29T20:26:03.706Z,73.33
2019-03-29T20:28:32.168Z,74.75
2019-03-29T20:31:00.907Z,70.80
2019-03-29T20:33:29.442Z,71.67
2019-03-29T20:35:57.910Z,75.28
2019-03-29T20:38:26.376Z,75.42
2019-03-29T20:40:54.905Z,72.20
2019-03-29T20:43:23.392Z,75.92
2019-03-29T20:45:51.845Z,72.67
2019-03-29T20:48:20.320Z,74.00
2019-03-29T20:50:48.771Z,70.47
2019-03-29T20:53:17.227Z,76.45
2019-03-29T20:55:45.695Z,67.53
2019-03-29T20:58:14.157Z,73.75
2019-03-29T21:00:42.616Z,62.67
2019-03-29T21:03:11.069Z,66.62
2019-03-29T21:05:39.514Z,88.78
2019-03-29T21:08:07.959Z,80.05
2019-03-29T21:10:36.435Z,72.55
2019-03-29T21:13:07.156Z,76.77
2019-03-29T21:15:35.143Z,88.22
2019-03-29T21:18:03.584Z,89.20
2019-03-29T21:20:32.403Z,72.32
2019-03-29T21:23:00.867Z,80.47
2019-03-29T21:25:29.311Z,82.17
2019-03-29T21:27:57.809Z,86.37
2019-03-29T21:30:26.347Z,83.80
2019-03-29T21:32:54.825Z,83.20
2019-03-29T21:35:23.312Z,84.45
2019-03-29T21:37:51.827Z,73.52
2019-03-29T21:40:20.305Z,80.77
2019-03-29T21:42:48.756Z,83.15
2019-03-29T21:45:28.153Z,78.72
2019-03-29T21:48:01.468Z,77.35
2019-03-29T21:50:17.967Z,85.87
2019-03-29T21:52:46.448Z,85.45
2019-03-29T21:55:14.904Z,85.65
2019-03-29T21:57:43.365Z,75.97
2019-03-29T22:00:12.633Z,94.52
2019-03-29T22:02:41.100Z,87.40
2019-03-29T22:05:10.546Z,83.58
2019-03-29T22:07:39.322Z,89.50
2019-03-29T22:10:11.757Z,83.55
2019-03-29T22:12:43.061Z,96.32
2019-03-29T22:15:10.715Z,96.75
2019-03-29T22:17:39.171Z,98.33
2019-03-29T22:20:08.655Z,88.65
2019-03-29T22:22:37.473Z,99.30
2019-03-29T22:25:08.028Z,98.80
2019-03-29T22:27:36.481Z,96.95
2019-03-29T22:30:09.146Z,87.05
2019-03-29T22:32:37.605Z,87.37
2019-03-29T22:35:07.314Z,85.80
2019-03-29T22:37:35.834Z,90.32
2019-03-29T22:40:06.635Z,85.57
2019-03-29T22:42:35.140Z,92.30
2019-03-29T22:45:05.228Z,80.67
2019-03-29T22:47:33.681Z,86.95
2019-03-29T22:50:02.156Z,100.02
2019-03-29T22:52:30.702Z,97.78
2019-03-29T22:54:59.159Z,93.07
2019-03-29T22:57:27.611Z,91.08
2019-03-29T22:59:56.069Z,94.32
2019-03-29T23:02:24.584Z,88.82
2019-03-29T23:04:53.040Z,87.17
2019-03-29T23:07:21.497Z,90.30
2019-03-29T23:09:49.947Z,86.90
2019-03-29T23:12:18.404Z,83.20
2019-03-29T23:14:47.172Z,86.85
2019-03-29T23:17:15.636Z,118.55
2019-03-29T23:19:44.114Z,108.60
2019-03-29T23:22:12.644Z,101.45
2019-03-29T23:24:41.093Z,116.88
2019-03-29T23:27:09.554Z,102.55
2019-03-29T23:29:37.995Z,106.22
2019-03-29T23:32:06.516Z,108.05
2019-03-29T23:34:34.947Z,94.62
2019-03-29T23:37:03.405Z,103.78
2019-03-29T23:39:31.854Z,106.45
2019-03-29T23:42:00.339Z,98.20
2019-03-29T23:44:28.792Z,103.85
2019-03-29T23:46:57.236Z,94.90
2019-03-29T23:49:25.690Z,97.47
2019-03-29T23:51:54.163Z,101.33
2019-03-29T23:54:22.623Z,99.00
2019-03-29T23:56:51.080Z,102.60
2019-03-29T23:59:19.531Z,97.22
